createdAt,value
2022-08-26T00:01:45.218Z,44.61
2022-08-26T00:04:12.676Z,45.22
2022-08-26T00:06:42.306Z,45.34
2022-08-26T00:09:12.904Z,45.01
2022-08-26T00:11:39.508Z,45.19
2022-08-26T00:14:06.604Z,45.37
2022-08-26T00:16:33.511Z,45.74
2022-08-26T00:19:01.176Z,45.00
2022-08-26T00:21:27.787Z,45.60
2022-08-26T00:23:55.652Z,44.99
2022-08-26T00:26:22.500Z,45.17
2022-08-26T00:28:55.133Z,45.09
2022-08-26T00:31:21.743Z,45.28
2022-08-26T00:33:48.557Z,45.27
2022-08-26T00:36:20.230Z,45.55
2022-08-26T00:38:47.897Z,45.35
2022-08-26T00:41:14.812Z,45.53
2022-08-26T00:43:47.136Z,45.63
2022-08-26T00:46:19.520Z,45.17
2022-08-26T00:48:50.009Z,44.86
2022-08-26T00:51:29.516Z,44.45
2022-08-26T00:54:05.796Z,44.78
2022-08-26T00:56:53.336Z,44.52
2022-08-26T00:59:20.677Z,45.33
2022-08-26T01:01:47.629Z,45.39
2022-08-26T01:04:17.974Z,45.35
2022-08-26T01:06:45.270Z,46.09
2022-08-26T01:09:12.693Z,45.85
2022-08-26T01:11:39.905Z,45.90
2022-08-26T01:14:08.626Z,45.53
2022-08-26T01:16:37.171Z,45.53
2022-08-26T01:19:15.914Z,45.04
2022-08-26T01:21:55.439Z,45.07
2022-08-26T01:24:22.079Z,45.74
2022-08-26T01:26:49.220Z,45.65
2022-08-26T01:29:19.276Z,45.65
2022-08-26T01:31:52.661Z,45.48
2022-08-26T01:34:26.918Z,44.92
2022-08-26T01:37:07.062Z,44.67
2022-08-26T01:39:36.322Z,45.54
2022-08-26T01:42:05.405Z,45.33
2022-08-26T01:44:59.405Z,45.11
2022-08-26T01:47:29.940Z,45.47
2022-08-26T01:49:59.836Z,45.36
2022-08-26T01:52:29.669Z,45.88
2022-08-26T01:54:58.955Z,45.71
2022-08-26T01:57:27.321Z,46.08
2022-08-26T01:59:58.138Z,45.41
2022-08-26T02:02:24.917Z,45.75
2022-08-26T02:04:59.641Z,45.02
2022-08-26T02:07:27.297Z,45.83
2022-08-26T02:09:54.117Z,45.44
2022-08-26T02:12:21.180Z,45.64
2022-08-26T02:14:54.930Z,45.37
2022-08-26T02:17:29.757Z,44.98
2022-08-26T02:19:57.888Z,46.07
2022-08-26T02:22:24.879Z,45.51
2022-08-26T02:24:54.513Z,45.78
2022-08-26T02:27:39.789Z,44.76
2022-08-26T02:30:09.239Z,45.70
2022-08-26T02:32:37.162Z,45.99
2022-08-26T02:35:09.011Z,46.25
2022-08-26T02:37:36.159Z,46.07
2022-08-26T02:40:05.200Z,46.04
2022-08-26T02:42:31.799Z,45.93
2022-08-26T02:44:58.490Z,46.29
2022-08-26T02:47:25.627Z,46.03
2022-08-26T02:49:55.840Z,46.40
2022-08-26T02:52:22.404Z,46.28
2022-08-26T02:54:49.618Z,46.10
2022-08-26T02:57:16.341Z,46.61
2022-08-26T02:59:42.972Z,46.37
2022-08-26T03:02:11.376Z,46.20
2022-08-26T03:04:40.245Z,46.61
2022-08-26T03:07:07.323Z,46.94
2022-08-26T03:09:34.088Z,46.83
2022-08-26T03:12:01.356Z,46.52
2022-08-26T03:14:29.008Z,46.37
2022-08-26T03:16:57.468Z,46.64
2022-08-26T03:19:25.966Z,46.52
2022-08-26T03:21:57.689Z,46.11
2022-08-26T03:24:26.029Z,46.58
2022-08-26T03:26:53.175Z,46.42
2022-08-26T03:29:39.538Z,46.44
2022-08-26T03:32:06.372Z,46.37
2022-08-26T03:34:33.133Z,46.41
2022-08-26T03:36:59.817Z,46.30
2022-08-26T03:39:26.492Z,46.12
2022-08-26T03:41:54.305Z,46.72
2022-08-26T03:44:21.837Z,46.48
2022-08-26T03:46:48.437Z,46.42
2022-08-26T03:49:15.724Z,46.84
2022-08-26T03:51:42.299Z,46.52
2022-08-26T03:54:09.578Z,46.69
2022-08-26T03:56:36.884Z,46.63
2022-08-26T03:59:04.415Z,46.62
2022-08-26T04:01:31.594Z,46.24
2022-08-26T04:04:00.515Z,47.13
2022-08-26T04:06:31.082Z,46.57
2022-08-26T04:09:02.539Z,46.84
2022-08-26T04:11:34.652Z,47.25
2022-08-26T04:14:07.651Z,47.11
2022-08-26T04:16:34.566Z,46.69
2022-08-26T04:19:01.939Z,47.23
2022-08-26T04:21:28.940Z,47.32
2022-08-26T04:23:56.289Z,47.48
2022-08-26T04:26:26.083Z,47.51
2022-08-26T04:28:54.699Z,47.81
2022-08-26T04:31:22.123Z,47.44
2022-08-26T04:33:49.973Z,47.26
2022-08-26T04:36:20.143Z,47.29
2022-08-26T04:38:47.524Z,47.66
2022-08-26T04:41:15.414Z,47.30
2022-08-26T04:43:44.891Z,47.54
2022-08-26T04:46:14.318Z,47.40
2022-08-26T04:48:41.525Z,47.96
2022-08-26T04:51:09.965Z,48.14
2022-08-26T04:53:37.474Z,48.04
2022-08-26T04:56:05.203Z,47.57
2022-08-26T04:58:32.186Z,47.91
2022-08-26T05:00:58.870Z,47.72
2022-08-26T05:03:30.565Z,47.69
2022-08-26T05:05:58.123Z,47.59
2022-08-26T05:08:25.178Z,47.70
2022-08-26T05:10:56.349Z,47.86
2022-08-26T05:13:26.338Z,47.47
2022-08-26T05:15:53.239Z,47.31
2022-08-26T05:18:23.423Z,47.64
2022-08-26T05:20:54.658Z,47.37
2022-08-26T05:23:23.416Z,48.05
2022-08-26T05:25:57.015Z,48.08
2022-08-26T05:28:26.347Z,48.02
2022-08-26T05:30:53.145Z,47.63
2022-08-26T05:33:20.287Z,47.76
2022-08-26T05:35:47.396Z,47.64
2022-08-26T05:38:16.636Z,48.00
2022-08-26T05:40:46.730Z,47.79
2022-08-26T05:43:14.489Z,47.72
2022-08-26T05:45:47.183Z,47.38
2022-08-26T05:48:16.242Z,47.91
2022-08-26T05:50:49.101Z,47.50
2022-08-26T05:53:19.262Z,47.59
2022-08-26T05:55:49.784Z,47.75
2022-08-26T05:58:20.319Z,48.12
2022-08-26T06:00:57.058Z,48.40
2022-08-26T06:03:23.757Z,45.60
2022-08-26T06:05:50.315Z,47.79
2022-08-26T06:08:19.325Z,47.90
2022-08-26T06:10:52.810Z,47.31
2022-08-26T06:13:22.222Z,47.65
2022-08-26T06:15:51.223Z,48.22
2022-08-26T06:18:22.411Z,48.27
2022-08-26T06:20:57.993Z,48.15
2022-08-26T06:23:45.777Z,48.60
2022-08-26T06:26:14.375Z,48.09
2022-08-26T06:28:41.164Z,48.35
2022-08-26T06:31:12.851Z,48.30
2022-08-26T06:33:39.520Z,47.85
2022-08-26T06:36:06.870Z,47.88
2022-08-26T06:38:34.565Z,48.27
2022-08-26T06:41:03.120Z,48.41
2022-08-26T06:43:29.794Z,48.47
2022-08-26T06:46:06.011Z,47.84
2022-08-26T06:48:34.493Z,48.65
2022-08-26T06:51:11.494Z,47.70
2022-08-26T06:53:41.105Z,48.82
2022-08-26T06:56:10.654Z,48.30
2022-08-26T06:58:39.426Z,48.79
2022-08-26T07:01:29.134Z,47.68
2022-08-26T07:03:58.262Z,48.63
2022-08-26T07:06:27.523Z,48.71
2022-08-26T07:09:01.378Z,49.08
2022-08-26T07:11:30.979Z,49.35
2022-08-26T07:13:59.096Z,49.63
2022-08-26T07:16:27.879Z,49.40
2022-08-26T07:18:56.259Z,49.54
2022-08-26T07:21:24.636Z,50.03
2022-08-26T07:23:57.510Z,49.93
2022-08-26T07:26:28.620Z,49.12
2022-08-26T07:28:57.370Z,50.23
2022-08-26T07:31:25.742Z,49.63
2022-08-26T07:33:53.667Z,50.08
2022-08-26T07:36:21.991Z,51.37
2022-08-26T07:38:49.089Z,50.99
2022-08-26T07:41:18.041Z,51.25
2022-08-26T07:43:46.244Z,51.75
2022-08-26T07:46:20.731Z,51.80
2022-08-26T07:48:53.554Z,51.74
2022-08-26T07:51:21.520Z,51.48
2022-08-26T07:53:52.374Z,51.39
2022-08-26T07:56:20.719Z,51.25
2022-08-26T07:58:51.331Z,51.18
2022-08-26T08:01:18.447Z,51.80
2022-08-26T08:03:45.576Z,51.35
2022-08-26T08:06:12.552Z,51.59
2022-08-26T08:08:41.431Z,50.91
2022-08-26T08:11:08.195Z,50.91
2022-08-26T08:13:37.523Z,51.84
2022-08-26T08:16:05.315Z,50.95
2022-08-26T08:18:31.967Z,51.52
2022-08-26T08:21:21.151Z,51.00
2022-08-26T08:23:48.390Z,51.40
2022-08-26T08:26:15.491Z,50.78
2022-08-26T08:28:43.773Z,51.63
2022-08-26T08:31:38.616Z,51.07
2022-08-26T08:34:08.405Z,48.84
2022-08-26T08:36:36.046Z,50.91
2022-08-26T08:39:03.181Z,50.78
2022-08-26T08:42:00.511Z,50.10
2022-08-26T08:44:29.120Z,50.33
2022-08-26T08:47:14.790Z,50.15
2022-08-26T08:49:43.806Z,49.96
2022-08-26T08:52:37.642Z,49.13
2022-08-26T08:55:11.157Z,50.18
2022-08-26T08:58:02.659Z,49.72
2022-08-26T09:00:42.618Z,49.33
2022-08-26T09:03:24.475Z,48.91
2022-08-26T09:05:53.459Z,48.47
2022-08-26T09:08:27.594Z,48.67
2022-08-26T09:10:59.411Z,47.94
2022-08-26T09:13:27.583Z,46.85
2022-08-26T09:16:08.460Z,46.74
2022-08-26T09:19:15.593Z,46.78
2022-08-26T09:21:45.869Z,45.89
2022-08-26T09:24:14.011Z,45.36
2022-08-26T09:26:41.064Z,45.22
2022-08-26T09:31:48.138Z,44.12
2022-08-26T09:34:23.843Z,43.96
2022-08-26T09:36:53.857Z,43.57
2022-08-26T09:39:26.523Z,44.21
2022-08-26T09:42:22.657Z,44.34
2022-08-26T09:45:06.261Z,43.89
2022-08-26T09:47:52.650Z,43.21
2022-08-26T09:50:54.925Z,43.38
2022-08-26T09:53:30.538Z,41.39
2022-08-26T09:56:18.319Z,42.15
2022-08-26T09:58:47.447Z,40.72
2022-08-26T10:01:23.185Z,41.33
2022-08-26T10:03:51.528Z,39.34
2022-08-26T10:06:21.172Z,38.58
2022-08-26T10:08:55.131Z,39.77
2022-08-26T10:11:30.562Z,39.89
2022-08-26T10:14:03.185Z,39.11
2022-08-26T10:22:04.387Z,39.58
2022-08-26T10:24:40.319Z,39.39
2022-08-26T10:27:52.687Z,40.00
2022-08-26T10:30:23.311Z,37.99
2022-08-26T10:32:58.276Z,38.66
2022-08-26T10:35:27.050Z,37.38
2022-08-26T10:37:58.100Z,37.62
2022-08-26T10:40:37.299Z,37.70
2022-08-26T10:43:14.144Z,37.60
2022-08-26T10:45:50.404Z,37.86
2022-08-26T10:48:27.916Z,37.69
2022-08-26T10:51:04.229Z,35.70
2022-08-26T10:53:45.306Z,37.44
2022-08-26T10:56:25.073Z,36.68
2022-08-26T10:58:57.467Z,36.62
2022-08-26T11:01:51.075Z,36.70
2022-08-26T11:04:48.122Z,37.00
2022-08-26T11:07:36.901Z,37.29
2022-08-26T11:10:20.594Z,36.42
2022-08-26T11:12:50.202Z,35.18
2022-08-26T11:15:19.775Z,35.52
2022-08-26T11:17:51.268Z,33.51
2022-08-26T11:20:29.958Z,34.84
2022-08-26T11:23:28.309Z,35.51
2022-08-26T11:26:16.444Z,35.48
2022-08-26T11:29:03.037Z,33.76
2022-08-26T11:31:30.542Z,32.96
2022-08-26T11:34:08.841Z,34.20
2022-08-26T11:36:51.741Z,33.47
2022-08-26T11:39:18.205Z,33.13
2022-08-26T11:41:47.544Z,32.08
2022-08-26T11:44:24.602Z,31.83
2022-08-26T11:46:55.695Z,32.62
2022-08-26T11:49:22.758Z,32.58
2022-08-26T11:51:49.443Z,31.90
2022-08-26T11:54:34.496Z,31.77
2022-08-26T11:57:09.289Z,31.85
2022-08-26T11:59:39.229Z,34.77
2022-08-26T12:02:15.422Z,31.71
2022-08-26T12:04:46.294Z,30.58
2022-08-26T12:07:13.396Z,30.18
2022-08-26T12:09:56.393Z,31.56
2022-08-26T12:12:34.808Z,30.97
2022-08-26T12:15:20.069Z,31.69
2022-08-26T12:17:52.990Z,32.92
2022-08-26T12:20:30.858Z,31.38
2022-08-26T12:23:00.112Z,29.15
2022-08-26T12:25:28.064Z,29.03
2022-08-26T12:28:05.556Z,29.87
2022-08-26T12:30:32.241Z,28.39
2022-08-26T12:33:23.021Z,30.78
2022-08-26T12:35:56.322Z,28.28
2022-08-26T12:38:25.070Z,28.57
2022-08-26T12:40:51.690Z,28.20
2022-08-26T12:43:40.362Z,30.63
2022-08-26T12:46:09.103Z,28.20
2022-08-26T12:48:38.695Z,27.52
2022-08-26T12:51:19.776Z,28.71
2022-08-26T12:53:46.388Z,26.38
2022-08-26T12:56:29.025Z,28.58
2022-08-26T12:59:04.712Z,27.85
2022-08-26T13:01:40.525Z,27.98
2022-08-26T13:04:07.097Z,26.74
2022-08-26T13:06:34.993Z,27.04
2022-08-26T13:09:07.371Z,28.20
2022-08-26T13:11:55.313Z,27.02
2022-08-26T13:14:24.572Z,27.32
2022-08-26T13:16:52.866Z,26.68
2022-08-26T13:19:22.986Z,27.06
2022-08-26T13:21:55.445Z,26.94
2022-08-26T13:24:24.706Z,26.89
2022-08-26T13:26:51.585Z,26.27
2022-08-26T13:29:19.353Z,26.47
2022-08-26T13:31:46.633Z,26.72
2022-08-26T13:34:18.226Z,27.21
2022-08-26T13:36:45.513Z,27.45
2022-08-26T13:39:12.719Z,27.27
2022-08-26T13:41:39.273Z,27.33
2022-08-26T13:44:06.526Z,27.74
2022-08-26T13:46:33.419Z,27.34
2022-08-26T13:48:59.966Z,27.99
2022-08-26T13:51:29.806Z,27.84
2022-08-26T13:53:56.598Z,27.60
2022-08-26T13:56:27.375Z,28.30
2022-08-26T13:58:53.854Z,28.12
2022-08-26T14:01:20.544Z,28.44
2022-08-26T14:03:47.127Z,28.73
2022-08-26T14:06:13.922Z,29.18
2022-08-26T14:08:43.762Z,29.56
2022-08-26T14:11:10.976Z,29.57
2022-08-26T14:13:37.646Z,29.69
2022-08-26T14:16:07.664Z,29.94
2022-08-26T14:18:41.882Z,29.73
2022-08-26T14:21:12.597Z,30.39
2022-08-26T14:23:39.126Z,30.15
2022-08-26T14:26:08.379Z,30.05
2022-08-26T14:28:35.636Z,29.97
2022-08-26T14:31:03.452Z,30.13
2022-08-26T14:33:33.962Z,30.38
2022-08-26T14:36:19.438Z,30.50
2022-08-26T14:38:46.533Z,30.18
2022-08-26T14:41:17.103Z,30.17
2022-08-26T14:43:59.893Z,30.68
2022-08-26T14:46:30.291Z,30.39
2022-08-26T14:49:01.994Z,30.18
2022-08-26T14:51:28.901Z,30.54
2022-08-26T14:54:13.989Z,30.56
2022-08-26T14:56:48.825Z,30.18
2022-08-26T14:59:18.066Z,29.91
2022-08-26T15:01:45.713Z,29.88
2022-08-26T15:04:12.841Z,30.46
2022-08-26T15:06:39.995Z,29.92
2022-08-26T15:09:07.414Z,29.87
2022-08-26T15:11:34.256Z,29.94
2022-08-26T15:14:00.726Z,29.70
2022-08-26T15:16:29.132Z,29.92
2022-08-26T15:18:56.441Z,30.16
2022-08-26T15:21:23.926Z,30.42
2022-08-26T15:23:52.706Z,30.30
2022-08-26T15:26:20.436Z,30.56
2022-08-26T15:28:47.154Z,30.71
2022-08-26T15:31:13.981Z,30.74
2022-08-26T15:33:40.579Z,31.22
2022-08-26T15:36:08.248Z,31.31
2022-08-26T15:38:38.915Z,31.26
2022-08-26T15:41:08.686Z,31.15
2022-08-26T15:43:36.607Z,31.50
2022-08-26T15:46:03.914Z,31.65
2022-08-26T15:48:30.486Z,31.84
2022-08-26T15:51:02.514Z,31.50
2022-08-26T15:53:31.508Z,31.82
2022-08-26T15:55:58.998Z,32.05
2022-08-26T15:58:27.654Z,32.30
2022-08-26T16:00:56.010Z,32.29
2022-08-26T16:03:22.804Z,32.06
2022-08-26T16:05:49.547Z,31.86
2022-08-26T16:08:16.337Z,32.29
2022-08-26T16:10:50.247Z,32.19
2022-08-26T16:13:19.206Z,32.52
2022-08-26T16:15:47.529Z,32.44
2022-08-26T16:18:15.533Z,32.72
2022-08-26T16:20:55.395Z,32.41
2022-08-26T16:23:38.463Z,32.77
2022-08-26T16:26:14.339Z,32.63
2022-08-26T16:28:41.056Z,32.83
2022-08-26T16:31:10.549Z,33.55
2022-08-26T16:33:39.999Z,33.57
2022-08-26T16:36:07.952Z,33.76
2022-08-26T16:38:35.488Z,33.96
2022-08-26T16:41:02.442Z,34.47
2022-08-26T16:43:29.121Z,34.83
2022-08-26T16:45:56.216Z,35.03
2022-08-26T16:48:23.601Z,34.89
2022-08-26T16:50:50.874Z,35.04
2022-08-26T16:53:17.482Z,35.83
2022-08-26T16:55:48.322Z,35.61
2022-08-26T16:58:15.297Z,36.28
2022-08-26T17:00:42.345Z,35.68
2022-08-26T17:03:09.039Z,34.39
2022-08-26T17:05:36.351Z,35.33
2022-08-26T17:08:03.890Z,36.50
2022-08-26T17:10:30.821Z,36.52
2022-08-26T17:12:57.810Z,36.30
2022-08-26T17:15:25.404Z,37.71
2022-08-26T17:17:53.375Z,38.02
2022-08-26T17:20:22.420Z,38.78
2022-08-26T17:22:51.190Z,39.57
2022-08-26T17:25:22.575Z,39.83
2022-08-26T17:27:49.107Z,40.30
2022-08-26T17:30:17.453Z,40.63
2022-08-26T17:32:44.954Z,41.25
2022-08-26T17:35:13.029Z,40.99
2022-08-26T17:37:39.924Z,41.25
2022-08-26T17:40:10.211Z,41.66
2022-08-26T17:42:38.761Z,41.69
2022-08-26T17:45:06.154Z,42.21
2022-08-26T17:47:33.242Z,42.53
2022-08-26T17:50:01.265Z,42.75
2022-08-26T17:52:28.587Z,43.34
2022-08-26T17:54:58.449Z,44.54
2022-08-26T17:57:26.228Z,45.06
2022-08-26T17:59:53.748Z,44.98
2022-08-26T18:02:21.084Z,46.42
2022-08-26T18:04:47.849Z,46.60
2022-08-26T18:07:14.566Z,46.79
2022-08-26T18:09:41.153Z,47.58
2022-08-26T18:12:08.291Z,47.85
2022-08-26T18:14:35.468Z,48.39
2022-08-26T18:17:02.461Z,48.47
2022-08-26T18:19:29.845Z,48.89
2022-08-26T18:21:56.864Z,49.00
2022-08-26T18:24:23.683Z,49.04
2022-08-26T18:26:51.094Z,49.03
2022-08-26T18:29:19.926Z,49.32
2022-08-26T18:31:46.660Z,49.35
2022-08-26T18:34:15.457Z,49.70
2022-08-26T18:36:43.780Z,49.56
2022-08-26T18:39:12.587Z,49.85
2022-08-26T18:41:44.888Z,48.98
2022-08-26T18:44:13.973Z,49.34
2022-08-26T18:46:40.949Z,49.90
2022-08-26T18:49:08.346Z,50.23
2022-08-26T18:51:35.596Z,49.80
2022-08-26T18:54:04.587Z,49.53
2022-08-26T18:56:32.109Z,49.24
2022-08-26T18:59:01.580Z,49.87
2022-08-26T19:01:30.177Z,49.59
2022-08-26T19:03:58.931Z,48.98
2022-08-26T19:06:28.279Z,48.71
2022-08-26T19:08:55.671Z,49.32
2022-08-26T19:11:31.985Z,49.53
2022-08-26T19:13:59.947Z,49.01
2022-08-26T19:16:27.519Z,49.08
2022-08-26T19:18:55.346Z,49.84
2022-08-26T19:21:23.519Z,50.00
2022-08-26T19:23:51.174Z,48.95
2022-08-26T19:26:18.482Z,49.57
2022-08-26T19:28:45.063Z,49.42
2022-08-26T19:31:12.326Z,49.20
2022-08-26T19:33:41.920Z,49.44
2022-08-26T19:36:22.143Z,48.92
2022-08-26T19:38:50.025Z,49.56
2022-08-26T19:41:36.706Z,48.36
2022-08-26T19:44:07.314Z,49.24
2022-08-26T19:46:33.998Z,49.18
2022-08-26T19:49:00.488Z,49.30
2022-08-26T19:51:29.749Z,48.81
2022-08-26T19:53:58.905Z,49.02
2022-08-26T19:56:26.741Z,48.54
2022-08-26T19:58:54.451Z,48.30
2022-08-26T20:01:22.004Z,48.67
2022-08-26T20:03:49.492Z,48.99
2022-08-26T20:06:20.102Z,48.79
2022-08-26T20:08:46.736Z,49.14
2022-08-26T20:11:17.176Z,48.90
2022-08-26T20:13:46.553Z,48.80
2022-08-26T20:16:13.865Z,49.06
2022-08-26T20:18:59.728Z,49.60
2022-08-26T20:21:27.733Z,50.08
2022-08-26T20:23:58.463Z,49.57
2022-08-26T20:26:27.384Z,50.00
2022-08-26T20:28:55.070Z,49.91
2022-08-26T20:31:21.775Z,49.84
2022-08-26T20:33:49.565Z,49.74
2022-08-26T20:36:16.478Z,49.98
2022-08-26T20:38:43.101Z,49.59
2022-08-26T20:41:10.432Z,49.75
2022-08-26T20:43:36.993Z,50.22
2022-08-26T20:46:03.796Z,50.43
2022-08-26T20:48:34.812Z,50.62
2022-08-26T20:51:02.048Z,50.50
2022-08-26T20:53:29.702Z,50.88
2022-08-26T20:56:08.678Z,49.27
2022-08-26T20:58:36.407Z,51.18
2022-08-26T21:01:07.578Z,51.07
2022-08-26T21:03:35.101Z,51.14
2022-08-26T21:06:03.164Z,51.08
2022-08-26T21:08:29.740Z,50.97
2022-08-26T21:11:00.079Z,50.81
2022-08-26T21:13:26.913Z,50.95
2022-08-26T21:15:58.043Z,50.66
2022-08-26T21:18:25.123Z,51.14
2022-08-26T21:20:52.759Z,51.56
2022-08-26T21:23:19.384Z,52.30
2022-08-26T21:25:46.618Z,52.06
2022-08-26T21:28:13.348Z,52.26
2022-08-26T21:30:40.702Z,52.60
2022-08-26T21:33:07.621Z,52.29
2022-08-26T21:35:34.173Z,52.48
2022-08-26T21:38:00.818Z,52.43
2022-08-26T21:40:27.865Z,52.68
2022-08-26T21:42:54.476Z,52.71
2022-08-26T21:45:20.995Z,52.66
2022-08-26T21:47:47.518Z,52.59
2022-08-26T21:50:13.999Z,53.46
2022-08-26T21:52:40.552Z,53.34
2022-08-26T21:55:09.093Z,53.08
2022-08-26T21:57:38.034Z,52.66
2022-08-26T22:00:08.936Z,52.94
2022-08-26T22:02:37.068Z,53.39
2022-08-26T22:05:04.112Z,52.95
2022-08-26T22:07:30.672Z,53.02
2022-08-26T22:09:57.255Z,52.41
2022-08-26T22:12:23.736Z,52.71
2022-08-26T22:14:50.315Z,53.18
2022-08-26T22:17:17.092Z,52.82
2022-08-26T22:19:46.181Z,53.17
2022-08-26T22:22:14.409Z,52.80
2022-08-26T22:24:43.239Z,52.98
2022-08-26T22:32:23.491Z,53.30
2022-08-26T22:34:50.007Z,53.79
2022-08-26T22:37:16.566Z,54.04
2022-08-26T22:39:43.113Z,54.01
2022-08-26T22:42:09.682Z,54.29
2022-08-26T22:44:37.609Z,54.27
2022-08-26T22:47:05.186Z,53.92
2022-08-26T22:49:31.762Z,54.19
2022-08-26T22:51:58.256Z,54.29
2022-08-26T22:54:24.877Z,54.09
2022-08-26T22:56:51.393Z,54.39
2022-08-26T22:59:18.012Z,54.33
2022-08-26T23:01:46.341Z,54.47
2022-08-26T23:04:13.033Z,54.58
2022-08-26T23:06:43.106Z,54.34
2022-08-26T23:09:10.961Z,54.02
2022-08-26T23:11:39.813Z,53.84
2022-08-26T23:14:08.922Z,53.98
2022-08-26T23:16:37.875Z,53.89
2022-08-26T23:19:07.544Z,54.00
2022-08-26T23:21:34.371Z,53.80
2022-08-26T23:24:02.303Z,54.05
2022-08-26T23:26:28.830Z,53.86
2022-08-26T23:28:55.542Z,54.21
2022-08-26T23:31:22.088Z,54.19
2022-08-26T23:34:07.230Z,54.33
2022-08-26T23:36:35.043Z,54.25
2022-08-26T23:39:03.082Z,54.29
2022-08-26T23:41:29.591Z,54.10
2022-08-26T23:43:57.983Z,54.52
2022-08-26T23:46:27.079Z,54.54
2022-08-26T23:48:53.605Z,54.33
2022-08-26T23:51:38.693Z,54.73
2022-08-26T23:54:05.223Z,54.76
2022-08-26T23:56:31.830Z,54.89
2022-08-26T23:58:58.726Z,55.16
